Time;durP1;ratioP1;P1;durP2;ratioP2;P2;SDS_P1;SDS_P2;PMS_P1;PMS_P2;Temp;Humidity;BMP_temperature;BMP_pressure;BME280_temperature;BME280_humidity;BME280_pressure;Samples;Min_cycle;Max_cycle;Signal;HPM_P1;HPM_P2
2023/07/04 00:01:20;;;;;;;;;2.67;2.00;;;;;18.90;75.43;98068.03;4935149;28;102349;-73
2023/07/04 00:04:12;;;;;;;;;;;;;;;;;;;;;
2023/07/04 00:07:03;;;;;;;;;2.00;2.00;;;;;18.94;73.58;98080.09;4926011;28;107489;-73
2023/07/04 00:09:46;;;;;;;;;3.33;3.00;;;;;18.91;74.23;98070.47;4930431;28;103531;-73
2023/07/04 00:12:37;;;;;;;;;4.00;3.00;;;;;19.00;73.14;98068.06;4931405;28;102000;-74
2023/07/04 00:15:19;;;;;;;;;3.00;3.00;;;;;19.03;74.51;98075.75;4933041;28;102348;-74
2023/07/04 00:17:57;;;;;;;;;2.33;2.33;;;;;19.02;73.50;98071.34;4894260;28;107821;-74
2023/07/04 00:20:25;;;;;;;;;3.00;2.33;;;;;19.02;75.14;98074.91;4933269;28;102611;-74
2023/07/04 00:22:52;;;;;;;;;4.00;2.00;;;;;19.05;74.68;98081.75;4927939;28;102486;-74
2023/07/04 00:25:21;;;;;;;;;3.00;2.00;;;;;19.01;73.22;98070.53;4934363;28;102386;-74
2023/07/04 00:27:49;;;;;;;;;4.33;3.33;;;;;19.07;74.09;98074.13;4930010;28;105220;-73
2023/07/04 00:30:16;;;;;;;;;4.00;2.00;;;;;18.99;76.50;98067.25;4933811;28;102407;-74
2023/07/04 00:32:43;;;;;;;;;3.00;3.00;;;;;18.94;78.00;98064.47;4929518;28;102347;-74
2023/07/04 00:35:10;;;;;;;;;6.00;6.00;;;;;18.87;78.24;98068.53;4930416;28;102177;-74
2023/07/04 00:37:37;;;;;;;;;4.00;4.00;;;;;18.80;76.45;98062.50;4931755;28;104302;-74
2023/07/04 00:40:06;;;;;;;;;5.00;4.00;;;;;18.83;75.25;98067.41;4928656;28;103232;-74
2023/07/04 00:42:36;;;;;;;;;3.67;3.67;;;;;18.85;77.10;98073.47;4925914;28;102522;-74
2023/07/04 00:45:20;;;;;;;;;4.33;4.00;;;;;18.85;74.96;98065.25;4930274;28;103160;-74
2023/07/04 00:47:57;;;;;;;;;2.67;2.67;;;;;18.83;76.69;98070.16;4931570;28;108740;-74
2023/07/04 00:50:31;;;;;;;;;5.00;5.00;;;;;18.77;79.40;98063.84;4928901;28;102154;-74
2023/07/04 00:53:02;;;;;;;;;4.00;4.00;;;;;18.73;81.20;98067.41;4926851;28;102758;-75
2023/07/04 00:55:32;;;;;;;;;4.00;3.67;;;;;18.63;82.80;98066.25;4931376;28;102231;-74
2023/07/04 00:58:04;;;;;;;;;4.00;4.00;;;;;18.55;81.99;98066.72;4931168;28;104058;-74
2023/07/04 01:00:32;;;;;;;;;5.00;5.00;;;;;18.47;79.05;98072.69;4928527;28;102666;-74
2023/07/04 01:03:09;;;;;;;;;5.33;5.00;;;;;18.39;80.83;98062.22;4926442;28;102356;-74
2023/07/04 01:06:09;;;;;;;;;4.67;4.67;;;;;18.35;79.38;98077.53;4919830;28;102203;-74
2023/07/04 01:08:59;;;;;;;;;4.00;3.00;;;;;18.26;80.20;98084.59;4926185;28;108768;-74
2023/07/04 01:11:44;;;;;;;;;3.00;2.00;;;;;18.18;82.05;98099.59;4928189;28;103460;-74
2023/07/04 01:14:38;;;;;;;;;17.00;15.00;;;;;17.83;85.88;98104.78;4926498;28;102056;-74
2023/07/04 01:17:32;;;;;;;;;15.25;13.50;;;;;17.92;85.67;98108.66;4927850;28;102230;-73
2023/07/04 01:20:16;;;;;;;;;12.00;11.00;;;;;17.89;86.31;98097.41;4930876;28;107531;-74
2023/07/04 01:23:12;;;;;;;;;9.00;8.00;;;;;17.86;85.17;98090.56;4928929;28;102851;-74
2023/07/04 01:26:04;;;;;;;;;8.33;7.67;;;;;17.80;85.76;98089.69;4930727;28;101939;-74
2023/07/04 01:28:31;;;;;;;;;8.33;7.33;;;;;17.89;86.14;98108.34;4933684;28;102350;-74
2023/07/04 01:30:58;;;;;;;;;13.50;11.75;;;;;17.78;87.81;98099.25;4929124;28;104112;-74
2023/07/04 01:33:26;;;;;;;;;21.00;19.25;;;;;17.64;86.39;98089.81;4932507;28;102563;-74
2023/07/04 01:35:53;;;;;;;;;15.25;14.00;;;;;17.58;87.18;98091.66;4926527;28;108629;-74
2023/07/04 01:38:20;;;;;;;;;13.75;12.25;;;;;17.55;87.37;98100.38;4933538;28;102419;-74
2023/07/04 01:40:47;;;;;;;;;14.25;12.50;;;;;17.50;86.72;98102.22;4933564;28;104237;-74
2023/07/04 01:43:14;;;;;;;;;16.25;14.00;;;;;17.30;88.86;98086.41;4932288;28;102379;-74
2023/07/04 01:45:45;;;;;;;;;9.00;8.50;;;;;17.43;89.07;98096.94;4936877;28;101968;-75
2023/07/04 01:48:12;;;;;;;;;9.75;9.25;;;;;17.45;89.80;98094.78;4938325;28;102017;-75
2023/07/04 01:50:39;;;;;;;;;7.33;6.33;;;;;17.50;89.54;98100.31;4934180;28;104047;-74
2023/07/04 01:53:06;;;;;;;;;8.50;7.75;;;;;17.51;89.54;98093.78;4937172;28;102581;-74
2023/07/04 01:55:33;;;;;;;;;7.00;7.00;;;;;17.53;88.30;98097.06;4934982;28;102901;-74
2023/07/04 01:58:00;;;;;;;;;6.00;5.00;;;;;17.10;91.70;98032.41;4939784;28;102599;-74
2023/07/04 02:00:30;;;;;;;;;7.67;7.00;;;;;17.49;90.71;98101.38;4937842;28;103997;-75
2023/07/04 02:02:57;;;;;;;;;4.00;4.00;;;;;17.39;91.55;98099.38;4933795;28;103358;-74
2023/07/04 02:05:25;;;;;;;;;5.33;5.33;;;;;17.02;90.76;98053.88;4939012;28;102197;-74
2023/07/04 02:07:52;;;;;;;;;3.33;3.33;;;;;17.31;91.60;98109.94;4936672;28;102363;-74
2023/07/04 02:10:19;;;;;;;;;5.67;5.00;;;;;17.30;93.28;98100.06;4933472;28;104059;-74
2023/07/04 02:12:46;;;;;;;;;5.00;5.00;;;;;17.30;91.56;98097.34;4934530;28;102508;-74
2023/07/04 02:15:14;;;;;;;;;5.00;5.00;;;;;17.26;91.98;98088.00;4933920;28;102171;-74
2023/07/04 02:17:41;;;;;;;;;6.67;5.00;;;;;17.32;92.00;98090.56;4936434;28;103336;-74
2023/07/04 02:20:09;;;;;;;;;5.33;4.00;;;;;17.33;95.50;98091.38;4931142;28;104179;-76
2023/07/04 02:22:40;;;;;;;;;5.00;4.00;;;;;17.26;95.24;98085.28;4932780;28;103120;-74
2023/07/04 02:25:07;;;;;;;;;7.00;7.00;;;;;17.15;97.18;98084.34;4935892;28;102162;-74
2023/07/04 02:27:34;;;;;;;;;5.00;4.00;;;;;17.06;97.70;98079.59;4935647;28;102559;-74
2023/07/04 02:30:02;;;;;;;;;1.25;0.00;;;;;17.10;96.21;98091.66;4937257;28;104150;-74
2023/07/04 02:32:30;;;;;;;;;8.00;8.00;;;;;17.08;95.56;98091.91;4934798;28;102478;-74
2023/07/04 02:34:57;;;;;;;;;7.00;6.00;;;;;17.08;95.91;98096.53;4932454;28;102296;-74
2023/07/04 02:37:24;;;;;;;;;6.33;5.00;;;;;17.07;95.71;98086.69;4935337;28;102281;-74
2023/07/04 02:39:52;;;;;;;;;6.00;5.00;;;;;17.07;95.22;98086.69;4935740;28;104011;-75
2023/07/04 02:42:19;;;;;;;;;5.00;5.00;;;;;17.14;96.54;98092.81;4936914;28;101975;-74
2023/07/04 02:44:46;;;;;;;;;5.33;4.33;;;;;17.04;96.63;98087.22;4939005;28;103757;-74
2023/07/04 02:47:13;;;;;;;;;6.00;5.00;;;;;16.99;97.95;98090.69;4937225;28;102100;-76
2023/07/04 02:49:40;;;;;;;;;6.00;6.00;;;;;16.98;97.77;98091.78;4939197;28;104404;-74
2023/07/04 02:52:08;;;;;;;;;5.00;4.00;;;;;16.95;98.89;98100.50;4938716;28;102230;-75
2023/07/04 02:54:35;;;;;;;;;7.33;6.33;;;;;16.82;98.16;98098.97;4940126;28;102027;-74
2023/07/04 02:57:02;;;;;;;;;8.75;8.75;;;;;16.68;99.05;98077.75;4933342;28;102222;-75
2023/07/04 02:59:29;;;;;;;;;5.33;5.33;;;;;16.80;99.31;98090.19;4939532;28;104025;-74
2023/07/04 03:01:56;;;;;;;;;6.75;6.75;;;;;16.82;99.19;98093.50;4935131;28;102016;-74
2023/07/04 03:04:23;;;;;;;;;5.00;5.00;;;;;16.80;98.50;98090.19;4935376;28;102504;-74
2023/07/04 03:06:50;;;;;;;;;8.25;7.50;;;;;16.85;98.20;98092.16;4938845;28;101997;-74
2023/07/04 03:09:17;;;;;;;;;4.33;4.00;;;;;16.83;99.78;98097.06;4940741;28;104065;-75
2023/07/04 03:11:44;;;;;;;;;4.33;4.33;;;;;16.81;100.00;98104.66;4937057;28;102323;-74
2023/07/04 03:14:11;;;;;;;;;7.00;5.50;;;;;16.74;100.00;98096.69;4938170;28;101995;-74
2023/07/04 03:16:38;;;;;;;;;7.75;5.50;;;;;16.73;100.00;98096.91;4939474;28;101930;-74
2023/07/04 03:19:06;;;;;;;;;4.75;4.75;;;;;16.82;100.00;98109.88;4938593;28;104179;-75
2023/07/04 03:21:33;;;;;;;;;6.00;6.00;;;;;16.84;100.00;98113.19;4936505;28;102334;-74
2023/07/04 03:24:00;;;;;;;;;6.50;6.50;;;;;16.87;100.00;98109.97;4936722;28;102543;-74
2023/07/04 03:26:27;;;;;;;;;6.75;6.50;;;;;16.91;100.00;98105.63;4938029;28;102253;-74
2023/07/04 03:28:54;;;;;;;;;6.25;5.75;;;;;16.97;99.10;98119.38;4935961;28;104082;-74
2023/07/04 03:31:21;;;;;;;;;6.00;5.25;;;;;17.01;98.98;98109.56;4934610;28;102271;-74
2023/07/04 03:33:50;;;;;;;;;5.00;4.67;;;;;17.06;99.03;98106.91;4935040;28;102236;-74
2023/07/04 03:36:17;;;;;;;;;2.67;2.67;;;;;17.00;100.00;98094.25;4937392;28;102128;-74
2023/07/04 03:38:44;;;;;;;;;3.00;3.00;;;;;17.08;99.79;98107.47;4935298;28;108517;-74
2023/07/04 03:41:11;;;;;;;;;4.00;3.00;;;;;17.06;98.81;98121.41;4936365;28;102521;-74
2023/07/04 03:43:39;;;;;;;;;5.00;4.00;;;;;17.03;98.03;98123.78;4935718;28;101975;-75
2023/07/04 03:46:06;;;;;;;;;6.00;6.00;;;;;16.89;99.36;98101.50;4933450;28;102275;-75
2023/07/04 03:48:33;;;;;;;;;5.75;5.75;;;;;17.02;98.24;98122.97;4926873;28;104149;-74
2023/07/04 03:51:01;;;;;;;;;5.00;5.00;;;;;16.90;98.96;98112.19;4931489;28;102282;-74
2023/07/04 03:53:28;;;;;;;;;8.00;7.00;;;;;16.95;98.58;98123.16;4924524;28;102056;-74
2023/07/04 03:55:55;;;;;;;;;6.00;6.00;;;;;16.97;99.39;98119.38;4933336;28;102185;-74
2023/07/04 03:58:23;;;;;;;;;4.00;3.00;;;;;17.10;99.85;98136.19;4936771;28;104013;-74
2023/07/04 04:00:50;;;;;;;;;5.33;4.00;;;;;17.18;100.00;98143.13;4938104;28;102565;-74
2023/07/04 04:03:18;;;;;;;;;3.67;3.67;;;;;17.24;100.00;98142.09;4934694;28;102685;-75
2023/07/04 04:05:45;;;;;;;;;7.67;7.00;;;;;17.33;98.29;98151.50;4932594;28;102832;-74
2023/07/04 04:08:13;;;;;;;;;6.00;5.00;;;;;17.42;98.33;98157.34;4932057;28;105956;-75
2023/07/04 04:10:40;;;;;;;;;4.00;4.00;;;;;17.48;96.54;98154.41;4926773;28;103557;-75
2023/07/04 04:13:07;;;;;;;;;6.00;4.00;;;;;17.55;96.37;98144.09;4932403;28;104060;-75
2023/07/04 04:15:34;;;;;;;;;5.00;4.00;;;;;17.65;94.39;98157.91;4931041;28;102416;-75
2023/07/04 04:18:01;;;;;;;;;5.00;4.00;;;;;17.67;93.37;98153.00;4931202;28;104020;-75
2023/07/04 04:20:29;;;;;;;;;6.00;4.33;;;;;17.79;93.34;98166.53;4930848;28;102053;-74
2023/07/04 04:22:56;;;;;;;;;6.67;6.67;;;;;17.83;92.96;98164.94;4932932;28;102218;-74
2023/07/04 04:25:23;;;;;;;;;5.33;4.67;;;;;17.92;92.81;98177.03;4931914;28;102262;-74
2023/07/04 04:27:50;;;;;;;;;3.67;3.67;;;;;17.98;91.73;98166.97;4931851;28;104339;-74
2023/07/04 04:30:17;;;;;;;;;6.00;6.00;;;;;18.05;91.07;98173.09;4931844;28;102247;-74
2023/07/04 04:32:44;;;;;;;;;8.00;7.00;;;;;18.11;89.25;98183.81;4926022;28;101942;-74
2023/07/04 04:35:13;;;;;;;;;7.75;6.75;;;;;18.15;91.26;98187.66;4934174;28;102135;-74
2023/07/04 04:37:40;;;;;;;;;7.67;7.67;;;;;18.24;90.75;98169.69;4928351;28;104159;-73
2023/07/04 04:40:07;;;;;;;;;8.00;6.67;;;;;18.34;89.02;98184.53;4931837;28;102238;-75
2023/07/04 04:42:35;;;;;;;;;9.00;8.67;;;;;18.38;89.35;98183.75;4931707;28;103544;-75
2023/07/04 04:45:03;;;;;;;;;9.67;8.67;;;;;18.43;88.89;98178.34;4931804;28;102853;-75
2023/07/04 04:47:33;;;;;;;;;10.00;7.67;;;;;18.51;88.21;98180.56;4932040;28;104037;-75
2023/07/04 04:50:01;;;;;;;;;10.33;7.33;;;;;18.31;87.63;98147.59;4931001;28;102074;-75
2023/07/04 04:52:31;;;;;;;;;6.00;6.00;;;;;18.61;87.57;98183.44;4932034;28;102006;-75
2023/07/04 04:55:02;;;;;;;;;8.67;7.33;;;;;18.73;87.58;98184.06;4932543;28;102199;-75
2023/07/04 04:57:29;;;;;;;;;8.33;7.33;;;;;18.83;86.04;98168.78;4927538;28;104058;-74
2023/07/04 04:59:59;;;;;;;;;6.00;6.00;;;;;19.07;85.23;98186.47;4925705;28;102529;-75
2023/07/04 05:02:30;;;;;;;;;8.00;7.00;;;;;19.15;84.47;98175.81;4929348;28;106562;-74
2023/07/04 05:05:01;;;;;;;;;8.33;7.00;;;;;19.40;85.19;98191.59;4928564;28;102385;-74
2023/07/04 05:07:29;;;;;;;;;11.67;11.00;;;;;19.58;84.94;98180.16;4935910;28;104107;-74
2023/07/04 05:09:58;;;;;;;;;10.00;9.33;;;;;19.77;82.91;98183.22;4933270;28;102219;-75
2023/07/04 05:12:26;;;;;;;;;9.33;8.00;;;;;19.87;82.92;98191.47;4935910;28;102344;-75
2023/07/04 05:14:53;;;;;;;;;10.00;9.67;;;;;20.07;82.58;98198.13;4937969;28;108071;-75
2023/07/04 05:17:20;;;;;;;;;9.33;8.00;;;;;20.17;81.05;98196.22;4937442;28;108774;-74
2023/07/04 05:19:48;;;;;;;;;14.67;11.67;;;;;20.31;80.76;98194.59;4937511;28;102054;-75
2023/07/04 05:22:17;;;;;;;;;11.00;9.00;;;;;20.46;78.93;98191.84;4936639;28;101924;-75
2023/07/04 05:24:45;;;;;;;;;12.00;10.67;;;;;20.70;78.01;98194.88;4937110;28;102083;-75
2023/07/04 05:27:12;;;;;;;;;10.67;8.33;;;;;20.98;76.70;98201.72;4930938;28;104426;-75
2023/07/04 05:29:39;;;;;;;;;7.67;6.67;;;;;21.30;75.82;98190.38;4935114;28;102175;-74
2023/07/04 05:32:06;;;;;;;;;9.67;7.67;;;;;21.53;73.42;98188.91;4938043;28;102492;-74
2023/07/04 05:34:33;;;;;;;;;11.00;9.00;;;;;21.84;73.99;98198.66;4939434;28;102108;-74
2023/07/04 05:37:04;;;;;;;;;18.67;17.00;;;;;21.76;74.16;98199.25;4939769;28;104122;-74
2023/07/04 05:39:31;;;;;;;;;10.00;9.33;;;;;21.83;71.53;98205.28;4939443;28;102329;-75
2023/07/04 05:41:58;;;;;;;;;9.00;9.00;;;;;21.85;72.81;98208.56;4938753;28;102073;-74
2023/07/04 05:44:25;;;;;;;;;9.67;7.67;;;;;21.94;70.62;98190.38;4936381;28;102213;-74
2023/07/04 05:46:53;;;;;;;;;14.67;11.00;;;;;22.15;68.66;98208.41;4938372;28;103656;-76
2023/07/04 05:49:20;;;;;;;;;10.00;8.00;;;;;22.32;67.66;98201.72;4939021;28;102164;-74
2023/07/04 05:51:48;;;;;;;;;7.00;7.00;;;;;22.35;66.46;98174.41;4940588;28;102142;-74
2023/07/04 05:54:15;;;;;;;;;10.67;10.00;;;;;22.77;65.53;98203.31;4939503;28;102363;-74
2023/07/04 05:56:42;;;;;;;;;10.00;10.00;;;;;22.88;63.66;98211.19;4936223;28;104042;-75
2023/07/04 05:59:09;;;;;;;;;9.00;8.67;;;;;22.99;63.63;98212.75;4940232;28;102150;-74
2023/07/04 06:01:40;;;;;;;;;6.67;6.00;;;;;23.18;62.96;98212.00;4937497;28;102228;-74
2023/07/04 06:04:09;;;;;;;;;9.00;8.33;;;;;23.22;63.50;98213.88;4939124;28;102463;-75
2023/07/04 06:06:38;;;;;;;;;9.00;8.33;;;;;23.31;65.25;98220.41;4935830;28;104146;-75
2023/07/04 06:09:11;;;;;;;;;6.33;6.33;;;;;23.24;63.22;98195.09;4938478;28;102259;-75
2023/07/04 06:11:45;;;;;;;;;9.67;9.00;;;;;23.57;63.92;98218.19;4939124;28;102195;-73
2023/07/04 06:14:23;;;;;;;;;11.00;10.67;;;;;23.73;64.07;98200.31;4938741;28;104137;-73
2023/07/04 06:16:50;;;;;;;;;8.33;7.33;;;;;23.95;63.14;98219.94;4937059;28;108736;-73
2023/07/04 06:19:19;;;;;;;;;7.00;5.00;;;;;24.06;59.87;98219.75;4938840;28;102085;-73
2023/07/04 06:21:46;;;;;;;;;13.00;10.67;;;;;24.04;60.42;98210.97;4939588;28;102011;-74
2023/07/04 06:24:18;;;;;;;;;8.00;7.67;;;;;24.06;57.12;98214.25;4941499;28;102434;-73
2023/07/04 06:26:47;;;;;;;;;9.00;9.00;;;;;24.13;59.12;98212.78;4937424;28;104001;-73
2023/07/04 06:29:14;;;;;;;;;8.00;6.00;;;;;24.31;58.21;98222.22;4935179;28;102345;-73
2023/07/04 06:31:42;;;;;;;;;11.00;9.00;;;;;24.38;59.35;98220.72;4937094;28;102250;-73
2023/07/04 06:34:11;;;;;;;;;10.00;10.00;;;;;24.42;58.49;98227.28;4938225;28;101960;-74
2023/07/04 06:36:38;;;;;;;;;8.67;8.67;;;;;24.49;60.08;98220.56;4937877;28;104153;-75
2023/07/04 06:39:06;;;;;;;;;10.33;9.33;;;;;24.47;56.69;98237.44;4939026;28;103073;-74
2023/07/04 06:41:33;;;;;;;;;8.00;8.00;;;;;24.52;57.31;98228.25;4932387;28;102254;-73
2023/07/04 06:44:00;;;;;;;;;12.33;9.33;;;;;24.53;56.19;98229.88;4932926;28;102076;-74
2023/07/04 06:46:27;;;;;;;;;9.67;8.67;;;;;24.69;57.54;98231.28;4937823;28;104048;-74
2023/07/04 06:48:54;;;;;;;;;11.00;9.33;;;;;24.70;54.26;98241.22;4936390;28;101947;-74
2023/07/04 06:51:21;;;;;;;;;9.67;9.00;;;;;24.86;54.96;98235.16;4940262;28;102610;-74
2023/07/04 06:53:49;;;;;;;;;8.00;6.33;;;;;24.84;55.29;98242.91;4954232;28;102255;-73
2023/07/04 06:56:20;;;;;;;;;9.33;8.67;;;;;24.74;55.82;98225.66;4937657;28;104106;-74
2023/07/04 06:58:50;;;;;;;;;9.33;8.33;;;;;25.04;59.86;98238.16;4938941;28;102005;-75
2023/07/04 07:01:19;;;;;;;;;9.00;8.00;;;;;24.92;54.86;98243.38;4938960;28;102646;-74
2023/07/04 07:03:46;;;;;;;;;9.67;8.00;;;;;25.07;54.09;98240.34;4939680;28;102349;-74
2023/07/04 07:06:13;;;;;;;;;8.00;7.33;;;;;25.23;52.40;98247.25;4935421;28;104104;-73
2023/07/04 07:08:41;;;;;;;;;9.00;9.00;;;;;25.11;52.14;98241.38;4939294;28;102457;-74
2023/07/04 07:11:11;;;;;;;;;7.33;7.00;;;;;25.20;53.71;98234.03;4938924;28;102407;-73
2023/07/04 07:13:39;;;;;;;;;9.00;9.00;;;;;25.22;52.24;98245.59;4939389;28;102903;-73
2023/07/04 07:16:15;;;;;;;;;8.33;6.67;;;;;25.24;50.68;98246.13;4938648;28;103948;-74
2023/07/04 07:18:44;;;;;;;;;8.00;7.33;;;;;25.06;50.26;98239.53;4938358;28;102011;-73
2023/07/04 07:21:14;;;;;;;;;9.00;8.00;;;;;25.09;52.11;98246.38;4937754;28;102523;-74
2023/07/04 07:23:41;;;;;;;;;7.00;7.00;;;;;25.26;50.36;98243.88;4939651;28;102201;-73
2023/07/04 07:26:11;;;;;;;;;8.00;5.00;;;;;25.26;53.49;98252.19;4937320;28;104188;-73
2023/07/04 07:28:39;;;;;;;;;9.67;6.00;;;;;25.34;48.53;98254.25;4935927;28;103249;-75
2023/07/04 07:31:11;;;;;;;;;6.33;5.00;;;;;25.35;50.54;98244.81;4937600;28;102114;-74
2023/07/04 07:33:41;;;;;;;;;5.33;4.33;;;;;25.47;48.73;98247.91;4938970;28;101956;-73
2023/07/04 07:36:14;;;;;;;;;6.00;6.00;;;;;25.51;48.52;98257.22;4937350;28;104320;-73
2023/07/04 07:38:42;;;;;;;;;8.00;6.33;;;;;25.19;46.70;98243.44;4936521;28;102019;-73
2023/07/04 07:41:09;;;;;;;;;6.00;6.00;;;;;25.23;46.84;98250.00;4937904;28;102636;-73
2023/07/04 07:43:38;;;;;;;;;6.00;5.33;;;;;25.37;46.90;98245.31;4938898;28;102340;-73
2023/07/04 07:46:10;;;;;;;;;7.00;6.67;;;;;25.16;45.70;98239.34;4938069;28;104073;-74
2023/07/04 07:48:37;;;;;;;;;5.00;4.00;;;;;25.09;46.17;98249.16;4937455;28;102002;-73
2023/07/04 07:51:07;;;;;;;;;5.00;4.67;;;;;25.11;46.67;98246.91;4938332;28;101872;-74
2023/07/04 07:53:35;;;;;;;;;4.33;3.67;;;;;25.36;46.29;98246.44;4939543;28;102188;-72
2023/07/04 07:56:04;;;;;;;;;3.67;3.67;;;;;25.20;44.32;98239.56;4935554;28;103982;-74
2023/07/04 07:58:32;;;;;;;;;5.67;5.00;;;;;25.28;43.99;98247.16;4938690;28;103027;-73
2023/07/04 08:00:59;;;;;;;;;5.33;4.67;;;;;25.18;43.99;98239.84;4938300;28;102009;-73
2023/07/04 08:03:27;;;;;;;;;6.00;6.00;;;;;25.07;43.95;98251.41;4937623;28;102299;-73
2023/07/04 08:05:54;;;;;;;;;4.00;4.00;;;;;24.92;43.81;98243.38;4937271;28;104008;-73
2023/07/04 08:08:21;;;;;;;;;4.00;4.00;;;;;25.02;44.11;98251.50;4939671;28;102239;-72
2023/07/04 08:10:48;;;;;;;;;6.00;5.00;;;;;24.99;43.32;98254.88;4937530;28;102378;-73
2023/07/04 08:13:15;;;;;;;;;4.00;3.00;;;;;25.01;43.93;98244.31;4939610;28;102055;-73
2023/07/04 08:15:49;;;;;;;;;3.00;3.00;;;;;25.13;43.74;98258.47;4936734;28;104665;-74
2023/07/04 08:18:16;;;;;;;;;5.33;3.00;;;;;25.14;43.58;98255.41;4937632;28;102086;-74
2023/07/04 08:20:43;;;;;;;;;2.00;2.00;;;;;25.30;43.37;98254.03;4937005;28;103213;-74
2023/07/04 08:23:10;;;;;;;;;5.00;3.00;;;;;25.30;43.00;98258.75;4938708;28;102414;-73
2023/07/04 08:25:38;;;;;;;;;3.00;2.50;;;;;25.08;41.09;98258.59;4936897;28;104341;-72
2023/07/04 08:28:05;;;;;;;;;2.00;2.00;;;;;24.96;42.75;98256.28;4936878;28;102214;-73
2023/07/04 08:30:32;;;;;;;;;3.00;2.33;;;;;25.02;45.23;98260.63;4936665;28;102473;-74
2023/07/04 08:32:59;;;;;;;;;4.00;3.00;;;;;24.69;43.40;98256.16;4936764;28;102047;-74
2023/07/04 08:35:26;;;;;;;;;6.00;5.00;;;;;24.84;44.43;98250.38;4936362;28;103056;-74
2023/07/04 08:37:53;;;;;;;;;3.00;3.00;;;;;25.03;46.25;98255.91;4937703;28;102029;-73
2023/07/04 08:40:20;;;;;;;;;5.00;3.67;;;;;24.97;42.93;98249.66;4936171;28;101927;-73
2023/07/04 08:42:47;;;;;;;;;3.00;3.00;;;;;25.19;45.91;98246.22;4937597;28;102318;-73
2023/07/04 08:45:26;;;;;;;;;3.00;3.00;;;;;25.28;47.19;98247.16;4936656;28;104040;-74
2023/07/04 08:47:55;;;;;;;;;3.00;2.33;;;;;25.28;46.15;98252.69;4935747;28;102522;-73
2023/07/04 08:50:30;;;;;;;;;4.67;4.00;;;;;25.18;44.49;98248.16;4939099;28;102444;-73
2023/07/04 08:53:18;;;;;;;;;4.00;4.00;;;;;25.16;44.64;98244.06;4935880;28;102458;-73
2023/07/04 08:56:00;;;;;;;;;2.00;1.67;;;;;25.33;42.79;98250.66;4935830;28;104133;-73
2023/07/04 08:58:35;;;;;;;;;2.00;2.00;;;;;25.40;43.85;98238.38;4932014;28;102355;-72
2023/07/04 09:01:12;;;;;;;;;4.00;4.00;;;;;25.14;42.42;98249.88;4933347;28;102368;-72
2023/07/04 09:03:45;;;;;;;;;2.00;2.00;;;;;25.02;42.89;98249.56;4937755;28;102014;-73
2023/07/04 09:06:35;;;;;;;;;4.00;3.67;;;;;25.00;40.72;98249.03;4934602;28;104417;-73
2023/07/04 09:09:02;;;;;;;;;3.00;3.00;;;;;25.15;42.35;98248.78;4945974;28;102365;-73
2023/07/04 09:11:31;;;;;;;;;2.67;2.67;;;;;25.06;41.99;98255.31;4937638;28;102507;-73
2023/07/04 09:14:34;;;;;;;;;2.33;2.00;;;;;25.17;40.78;98251.25;4935878;28;102623;-73
2023/07/04 09:17:12;;;;;;;;;3.00;2.00;;;;;25.04;42.00;98236.22;4912340;28;108634;-73
2023/07/04 09:19:45;;;;;;;;;2.67;2.67;;;;;25.15;43.48;98247.94;4936394;28;102415;-73
2023/07/04 09:22:12;;;;;;;;;3.00;3.00;;;;;25.06;42.73;98245.06;4932500;28;102304;-74
2023/07/04 09:24:39;;;;;;;;;4.00;4.00;;;;;25.17;41.87;98246.50;4938107;28;101932;-73
2023/07/04 09:27:08;;;;;;;;;3.67;3.00;;;;;25.38;42.38;98248.91;4937186;28;104014;-74
2023/07/04 09:29:35;;;;;;;;;2.00;2.00;;;;;25.51;43.62;98242.56;4937021;28;102424;-74
2023/07/04 09:32:02;;;;;;;;;2.67;2.67;;;;;25.57;41.97;98246.91;4936449;28;102450;-73
2023/07/04 09:34:43;;;;;;;;;3.00;2.00;;;;;25.46;42.91;98248.19;4936178;28;102229;-75
2023/07/04 09:37:15;;;;;;;;;3.00;3.00;;;;;25.45;42.63;98261.22;4934978;28;104041;-72
2023/07/04 09:39:54;;;;;;;;;5.33;4.33;;;;;25.51;44.73;98251.69;4934944;28;102235;-72
2023/07/04 09:42:42;;;;;;;;;4.00;3.00;;;;;25.55;44.55;98258.28;4935824;28;102356;-73
2023/07/04 09:45:21;;;;;;;;;3.33;3.00;;;;;25.68;46.17;98246.38;4935032;28;102190;-74
2023/07/04 09:47:48;;;;;;;;;3.00;3.00;;;;;25.81;45.37;98236.44;4935343;28;104248;-73
2023/07/04 09:50:26;;;;;;;;;3.33;3.00;;;;;25.97;42.01;98256.34;4936455;28;102306;-73
2023/07/04 09:53:19;;;;;;;;;7.00;6.67;;;;;25.63;39.48;98263.09;4931206;28;102447;-73
2023/07/04 09:56:01;;;;;;;;;8.00;7.33;;;;;25.42;39.87;98272.91;4938284;28;102317;-74
2023/07/04 09:58:29;;;;;;;;;9.00;9.00;;;;;25.40;41.62;98269.59;4932549;28;112179;-74
2023/07/04 10:01:15;;;;;;;;;7.00;7.00;;;;;25.51;41.88;98256.41;4934606;28;101991;-74
2023/07/04 10:03:45;;;;;;;;;6.00;6.00;;;;;25.65;40.16;98258.09;4936017;28;102198;-74
2023/07/04 10:06:28;;;;;;;;;6.00;4.00;;;;;25.70;41.37;98259.94;4936185;28;102246;-74
2023/07/04 10:08:56;;;;;;;;;9.67;8.00;;;;;25.31;38.46;98260.38;4933640;28;108700;-76
2023/07/04 10:11:33;;;;;;;;;12.67;9.00;;;;;25.10;41.04;98251.63;4938028;28;102242;-74
2023/07/04 10:14:04;;;;;;;;;10.00;8.67;;;;;25.08;40.70;98248.31;4932880;28;102296;-73
2023/07/04 10:16:31;;;;;;;;;9.00;8.33;;;;;25.42;40.61;98255.47;4936660;28;102138;-74
2023/07/04 10:19:09;;;;;;;;;10.00;7.00;;;;;25.56;40.74;98257.16;4936885;28;106438;-74
2023/07/04 10:21:45;;;;;;;;;9.00;9.00;;;;;25.31;40.82;98252.88;4937484;28;102058;-73
2023/07/04 10:24:23;;;;;;;;;10.67;10.00;;;;;25.46;44.23;98245.44;4937979;28;102277;-73
2023/07/04 10:27:05;;;;;;;;;15.33;13.33;;;;;25.19;41.19;98237.91;4936966;28;102356;-73
2023/07/04 10:29:48;;;;;;;;;9.00;9.00;;;;;25.46;41.69;98243.47;4933786;28;108571;-74
2023/07/04 10:32:17;;;;;;;;;9.00;8.00;;;;;25.29;40.64;98251.56;4938935;28;106288;-74
2023/07/04 10:34:49;;;;;;;;;9.67;7.00;;;;;25.47;41.21;98245.13;4929891;28;102097;-73
2023/07/04 10:37:31;;;;;;;;;8.33;8.00;;;;;25.65;42.63;98252.56;4939655;28;103993;-73
2023/07/04 10:40:04;;;;;;;;;12.33;9.00;;;;;25.44;39.85;98245.72;4934140;28;108503;-73
2023/07/04 10:42:44;;;;;;;;;4.00;4.00;;;;;25.57;41.15;98244.97;4933749;28;101891;-74
2023/07/04 10:45:15;;;;;;;;;13.33;10.33;;;;;25.25;42.16;98250.53;4936469;28;102433;-75
2023/07/04 10:47:43;;;;;;;;;8.00;7.67;;;;;25.27;40.78;98251.03;4940075;28;102169;-77
2023/07/04 10:50:22;;;;;;;;;9.33;9.00;;;;;25.45;42.67;98247.38;4935919;28;105238;-74
2023/07/04 10:52:49;;;;;;;;;8.00;7.00;;;;;25.79;43.96;98251.72;4939166;28;102531;-73
2023/07/04 10:55:21;;;;;;;;;5.00;5.00;;;;;26.01;43.30;98243.50;4936352;28;101988;-74
2023/07/04 10:58:01;;;;;;;;;6.00;5.33;;;;;26.04;42.96;98248.41;4938201;28;102684;-74
2023/07/04 11:00:36;;;;;;;;;7.00;6.00;;;;;25.83;40.38;98238.91;4937402;28;108784;-74
2023/07/04 11:03:41;;;;;;;;;5.67;5.67;;;;;25.88;39.91;98241.56;4939169;28;102151;-74
2023/07/04 11:06:14;;;;;;;;;5.67;5.00;;;;;25.91;40.78;98246.47;4919688;28;102188;-73
2023/07/04 11:08:41;;;;;;;;;5.67;5.67;;;;;26.00;39.73;98239.09;4940108;28;102410;-74
2023/07/04 11:11:12;;;;;;;;;4.33;4.33;;;;;26.04;39.79;98232.63;4938216;28;104168;-73
2023/07/04 11:13:48;;;;;;;;;4.33;3.67;;;;;26.11;39.64;98223.88;4939009;28;102500;-74
2023/07/04 11:16:18;;;;;;;;;4.00;3.00;;;;;26.16;42.46;98219.03;4938050;28;102480;-73
2023/07/04 11:19:03;;;;;;;;;4.00;3.00;;;;;26.25;41.82;98227.50;4939332;28;104546;-74
2023/07/04 11:21:31;;;;;;;;;4.67;4.00;;;;;26.18;40.42;98222.31;4934519;28;108421;-73
2023/07/04 11:24:15;;;;;;;;;5.00;4.00;;;;;26.27;41.19;98227.97;4938567;28;102473;-73
2023/07/04 11:27:05;;;;;;;;;3.00;3.00;;;;;26.25;39.51;98205.31;4936956;28;101988;-74
2023/07/04 11:29:50;;;;;;;;;5.33;4.00;;;;;26.27;41.16;98219.66;4932824;28;102085;-74
2023/07/04 11:32:25;;;;;;;;;4.00;4.00;;;;;26.06;40.37;98229.53;4938711;28;103921;-74
2023/07/04 11:35:15;;;;;;;;;5.00;5.00;;;;;26.26;40.70;98228.28;4939155;28;102343;-74
2023/07/04 11:37:54;;;;;;;;;3.67;3.67;;;;;26.32;40.57;98222.31;4937788;28;102221;-74
2023/07/04 11:40:26;;;;;;;;;5.00;4.33;;;;;26.41;41.45;98231.53;4939319;28;102169;-74
2023/07/04 11:42:58;;;;;;;;;3.67;3.33;;;;;26.65;39.87;98234.03;4938767;28;108955;-74